Time;durP1;ratioP1;P1;durP2;ratioP2;P2;SDS_P1;SDS_P2;PMS_P1;PMS_P2;Temp;Humidity;BMP_temperature;BMP_pressure;BME280_temperature;BME280_humidity;BME280_pressure;Samples;Min_cycle;Max_cycle;Signal;HPM_P1;HPM_P2
2023/05/31 00:01:58;;;;;;;;;;;13.20;90.80;;;;;;5073157;28;20347;-84
2023/05/31 00:04:24;;;;;;;;;;;13.20;90.90;;;;;;5073945;28;19915;-85
2023/05/31 00:06:50;;;;;;;;;;;13.20;91.00;;;;;;5074603;28;19931;-84
2023/05/31 00:09:16;;;;;;;;;;;13.20;91.00;;;;;;5073911;28;19958;-85
2023/05/31 00:11:41;;;;;;;;;;;13.20;91.20;;;;;;5074078;28;19958;-85
2023/05/31 00:14:07;;;;;;;;;;;13.10;91.30;;;;;;5073799;28;19915;-85
2023/05/31 00:16:33;;;;;;;;;;;13.10;91.40;;;;;;5073799;28;20260;-85
2023/05/31 00:18:58;;;;;;;;;;;13.10;91.70;;;;;;5073413;28;19909;-86
2023/05/31 00:21:24;;;;;;;;;;;13.10;91.90;;;;;;5074251;28;19947;-86
2023/05/31 00:23:50;;;;;;;;;;;13.00;92.10;;;;;;5073758;28;19944;-85
2023/05/31 00:26:15;;;;;;;;;;;13.00;92.30;;;;;;5073833;28;20654;-85
2023/05/31 00:28:42;;;;;;;;;;;12.90;92.50;;;;;;5073698;28;19916;-85
2023/05/31 00:31:08;;;;;;;;;;;12.90;92.70;;;;;;5073590;28;20023;-85
2023/05/31 00:33:33;;;;;;;;;;;12.90;92.80;;;;;;5073041;28;19915;-84
2023/05/31 00:35:59;;;;;;;;;;;12.90;92.90;;;;;;5072261;28;20025;-85
2023/05/31 00:38:25;;;;;;;;;;;12.80;93.10;;;;;;5073135;28;19914;-84
2023/05/31 00:40:50;;;;;;;;;;;12.80;93.00;;;;;;5074202;28;20300;-85
2023/05/31 00:43:16;;;;;;;;;;;12.80;93.30;;;;;;5057071;28;19959;-85
2023/05/31 00:45:41;;;;;;;;;;;12.80;93.40;;;;;;5073981;28;20015;-85
2023/05/31 00:48:07;;;;;;;;;;;12.80;93.50;;;;;;5074148;28;19908;-86
2023/05/31 00:50:33;;;;;;;;;;;12.70;93.70;;;;;;5074182;28;20382;-85
2023/05/31 00:52:59;;;;;;;;;;;12.70;93.80;;;;;;5070749;28;19927;-85
2023/05/31 00:55:26;;;;;;;;;;;12.80;93.50;;;;;;5079727;28;19912;-85
2023/05/31 00:57:52;;;;;;;;;;;12.80;93.40;;;;;;5056058;28;20007;-85
2023/05/31 01:00:18;;;;;;;;;;;12.80;93.70;;;;;;5076838;28;19908;-82
2023/05/31 01:02:43;;;;;;;;;;;12.70;93.80;;;;;;5080232;28;19969;-84
2023/05/31 01:05:09;;;;;;;;;;;12.70;93.90;;;;;;5085370;28;19954;-84
2023/05/31 01:07:35;;;;;;;;;;;12.70;93.80;;;;;;5076837;28;19975;-84
2023/05/31 01:10:02;;;;;;;;;;;12.70;93.90;;;;;;5074870;28;20007;-84
2023/05/31 01:12:30;;;;;;;;;;;12.60;94.00;;;;;;5085540;28;20271;-84
2023/05/31 01:15:09;;;;;;;;;;;12.60;94.20;;;;;;5074189;28;20004;-85
2023/05/31 01:17:59;;;;;;;;;;;12.60;94.40;;;;;;5073871;28;19947;-84
2023/05/31 01:20:26;;;;;;;;;;;12.70;93.90;;;;;;5072787;28;19908;-85
2023/05/31 01:23:01;;;;;;;;;;;12.60;94.20;;;;;;5072694;28;19908;-86
2023/05/31 01:25:28;;;;;;;;;;;12.60;94.10;;;;;;5056654;28;19919;-85
2023/05/31 01:27:54;;;;;;;;;;;12.50;94.40;;;;;;5072760;28;20022;-85
2023/05/31 01:30:21;;;;;;;;;;;12.50;94.70;;;;;;5073236;28;19919;-85
2023/05/31 01:32:47;;;;;;;;;;;12.40;94.80;;;;;;5073096;28;19919;-86
2023/05/31 01:35:13;;;;;;;;;;;12.50;94.80;;;;;;5072907;28;19912;-86
2023/05/31 01:37:39;;;;;;;;;;;12.50;94.80;;;;;;5071209;28;19915;-86
2023/05/31 01:40:05;;;;;;;;;;;12.50;94.80;;;;;;5061956;28;19912;-83
2023/05/31 01:42:31;;;;;;;;;;;12.50;94.70;;;;;;5073058;28;19915;-84
2023/05/31 01:44:59;;;;;;;;;;;12.50;95.30;;;;;;5073196;28;19912;-84
2023/05/31 01:47:25;;;;;;;;;;;12.50;95.20;;;;;;5072821;28;19917;-85
2023/05/31 01:49:52;;;;;;;;;;;12.50;95.00;;;;;;5078337;28;19908;-86
2023/05/31 01:52:19;;;;;;;;;;;12.50;95.00;;;;;;5079131;28;20013;-85
2023/05/31 01:54:45;;;;;;;;;;;12.50;95.20;;;;;;5077163;28;19908;-85
2023/05/31 01:57:11;;;;;;;;;;;12.40;95.30;;;;;;5075785;28;19945;-83
2023/05/31 01:59:39;;;;;;;;;;;12.40;95.30;;;;;;5074188;28;20007;-83
2023/05/31 02:02:07;;;;;;;;;;;12.40;95.20;;;;;;5076676;28;19915;-83
2023/05/31 02:04:33;;;;;;;;;;;12.40;95.40;;;;;;5076547;28;20367;-84
2023/05/31 02:07:00;;;;;;;;;;;12.40;95.40;;;;;;5076324;28;19912;-83
2023/05/31 02:09:26;;;;;;;;;;;12.40;95.40;;;;;;5076016;28;20363;-84
2023/05/31 02:11:51;;;;;;;;;;;12.30;95.70;;;;;;5076243;28;19933;-84
2023/05/31 02:14:17;;;;;;;;;;;12.30;96.10;;;;;;5076039;28;20007;-84
2023/05/31 02:16:42;;;;;;;;;;;12.30;95.90;;;;;;5077426;28;20005;-84
2023/05/31 02:19:08;;;;;;;;;;;12.30;95.90;;;;;;5075491;28;19909;-84
2023/05/31 02:21:37;;;;;;;;;;;12.30;95.80;;;;;;5075611;28;19987;-84
2023/05/31 02:24:28;;;;;;;;;;;12.30;95.80;;;;;;5075766;28;19912;-84
2023/05/31 02:26:53;;;;;;;;;;;12.20;96.00;;;;;;5090867;28;19919;-84
2023/05/31 02:29:19;;;;;;;;;;;12.20;96.40;;;;;;5078144;28;19912;-83
2023/05/31 02:31:45;;;;;;;;;;;12.10;96.40;;;;;;5076159;28;19948;-85
2023/05/31 02:34:12;;;;;;;;;;;12.10;96.40;;;;;;5075973;28;19900;-85
2023/05/31 02:36:39;;;;;;;;;;;12.10;96.60;;;;;;5059524;28;19915;-84
2023/05/31 02:39:05;;;;;;;;;;;12.10;96.50;;;;;;5075449;28;19908;-84
2023/05/31 02:41:32;;;;;;;;;;;12.10;96.80;;;;;;5076728;28;19999;-85
2023/05/31 02:43:58;;;;;;;;;;;12.00;96.90;;;;;;5075939;28;20373;-84
2023/05/31 02:46:23;;;;;;;;;;;12.00;97.20;;;;;;5068009;28;19999;-84
2023/05/31 02:48:49;;;;;;;;;;;12.00;96.90;;;;;;5076085;28;19908;-84
2023/05/31 02:51:16;;;;;;;;;;;12.00;97.00;;;;;;5075606;28;20015;-84
2023/05/31 02:54:05;;;;;;;;;;;12.10;96.90;;;;;;5073811;28;20317;-84
2023/05/31 02:56:32;;;;;;;;;;;12.10;97.10;;;;;;5075304;28;19912;-84
2023/05/31 02:59:27;;;;;;;;;;;12.00;97.30;;;;;;5058443;28;19940;-84
2023/05/31 03:02:12;;;;;;;;;;;11.90;97.70;;;;;;5075287;28;20278;-84
2023/05/31 03:04:41;;;;;;;;;;;11.80;98.00;;;;;;5076704;28;20301;-85
2023/05/31 03:07:07;;;;;;;;;;;11.80;97.90;;;;;;5074662;28;19938;-85
2023/05/31 03:09:34;;;;;;;;;;;11.80;98.40;;;;;;5075445;28;20360;-84
2023/05/31 03:12:18;;;;;;;;;;;11.80;98.50;;;;;;5074693;28;19961;-85
2023/05/31 03:14:46;;;;;;;;;;;11.80;98.50;;;;;;5072723;28;20287;-84
2023/05/31 03:17:12;;;;;;;;;;;11.70;99.10;;;;;;5091056;28;19913;-84
2023/05/31 03:19:37;;;;;;;;;;;11.70;99.30;;;;;;5075383;28;20241;-84
2023/05/31 03:22:04;;;;;;;;;;;11.70;99.50;;;;;;5076732;28;19935;-84
2023/05/31 03:24:31;;;;;;;;;;;11.60;99.90;;;;;;5074146;28;19916;-87
2023/05/31 03:26:57;;;;;;;;;;;11.60;99.70;;;;;;5058897;28;19908;-88
2023/05/31 03:29:24;;;;;;;;;;;11.60;99.90;;;;;;5075849;28;19999;-87
2023/05/31 03:31:50;;;;;;;;;;;11.60;99.90;;;;;;5075545;28;19912;-86
2023/05/31 03:34:16;;;;;;;;;;;11.50;99.90;;;;;;5075929;28;20710;-88
2023/05/31 03:36:41;;;;;;;;;;;11.50;99.90;;;;;;5075291;28;19915;-87
2023/05/31 03:39:42;;;;;;;;;;;11.50;99.90;;;;;;5075996;28;19916;-87
2023/05/31 03:42:15;;;;;;;;;;;11.50;99.90;;;;;;5075280;28;19893;-86
2023/05/31 03:44:40;;;;;;;;;;;11.50;99.90;;;;;;5074963;28;19916;-87
2023/05/31 03:47:06;;;;;;;;;;;11.50;99.90;;;;;;5108681;28;19908;-87
2023/05/31 03:49:32;;;;;;;;;;;11.50;99.90;;;;;;5074729;28;19987;-85
2023/05/31 03:51:57;;;;;;;;;;;11.50;99.90;;;;;;5075643;28;20407;-86
2023/05/31 03:54:23;;;;;;;;;;;11.50;99.90;;;;;;5074807;28;19917;-86
2023/05/31 03:56:49;;;;;;;;;;;11.60;99.90;;;;;;5075347;28;19915;-85
2023/05/31 03:59:15;;;;;;;;;;;11.60;99.90;;;;;;5057842;28;19912;-86
2023/05/31 04:01:41;;;;;;;;;;;11.60;99.90;;;;;;5074884;28;19920;-86
2023/05/31 04:04:06;;;;;;;;;;;11.70;99.90;;;;;;5074554;28;19962;-85
2023/05/31 04:06:33;;;;;;;;;;;11.70;99.90;;;;;;5075185;28;19920;-86
2023/05/31 04:09:00;;;;;;;;;;;11.70;99.90;;;;;;5075103;28;19908;-85
2023/05/31 04:11:26;;;;;;;;;;;11.70;99.90;;;;;;5077182;28;19931;-86
2023/05/31 04:13:52;;;;;;;;;;;11.70;99.90;;;;;;5095846;28;20423;-86
2023/05/31 04:16:17;;;;;;;;;;;11.70;99.90;;;;;;5099955;28;19903;-87
2023/05/31 04:18:43;;;;;;;;;;;11.70;99.90;;;;;;5096224;28;19904;-87
2023/05/31 04:21:08;;;;;;;;;;;11.70;99.90;;;;;;5071457;28;19922;-86
2023/05/31 04:23:36;;;;;;;;;;;11.80;99.90;;;;;;5073598;28;19912;-86
2023/05/31 04:26:02;;;;;;;;;;;11.80;99.90;;;;;;5074127;28;20372;-87
2023/05/31 04:28:29;;;;;;;;;;;11.80;99.90;;;;;;5074441;28;20390;-86
2023/05/31 04:30:57;;;;;;;;;;;11.80;99.90;;;;;;5073982;28;19991;-86
2023/05/31 04:33:23;;;;;;;;;;;11.80;99.90;;;;;;5074437;28;19912;-87
2023/05/31 04:35:50;;;;;;;;;;;11.90;99.90;;;;;;5074347;28;20009;-86
2023/05/31 04:38:16;;;;;;;;;;;11.90;99.90;;;;;;5074156;28;19914;-86
2023/05/31 04:40:42;;;;;;;;;;;12.00;99.90;;;;;;5074858;28;20371;-86
2023/05/31 04:43:08;;;;;;;;;;;12.00;99.90;;;;;;5074504;28;19909;-85
2023/05/31 04:45:34;;;;;;;;;;;12.00;99.90;;;;;;5057305;28;20363;-87
2023/05/31 04:48:07;;;;;;;;;;;12.00;99.90;;;;;;5073794;28;19908;-86
2023/05/31 04:50:33;;;;;;;;;;;12.10;99.90;;;;;;5057511;28;19999;-85
2023/05/31 04:52:58;;;;;;;;;;;12.20;99.90;;;;;;5074161;28;19912;-89
2023/05/31 04:55:26;;;;;;;;;;;12.20;99.90;;;;;;5073506;28;19909;-85
2023/05/31 04:57:52;;;;;;;;;;;12.30;99.90;;;;;;5073758;28;19915;-86
2023/05/31 05:00:19;;;;;;;;;;;12.40;99.90;;;;;;5073818;28;19908;-87
2023/05/31 05:03:02;;;;;;;;;;;12.40;99.90;;;;;;5073130;28;19908;-87
2023/05/31 05:05:28;;;;;;;;;;;12.50;99.90;;;;;;5056813;28;19955;-87
2023/05/31 05:07:55;;;;;;;;;;;12.50;99.90;;;;;;5057261;28;19915;-86
2023/05/31 05:10:23;;;;;;;;;;;12.50;99.90;;;;;;5073699;28;19926;-86
2023/05/31 05:12:49;;;;;;;;;;;12.60;99.90;;;;;;5074063;28;20340;-86
2023/05/31 05:15:14;;;;;;;;;;;12.70;99.90;;;;;;5073858;28;19947;-86
2023/05/31 05:17:45;;;;;;;;;;;12.80;99.90;;;;;;5073726;28;19916;-87
2023/05/31 05:20:12;;;;;;;;;;;12.80;99.90;;;;;;5074147;28;19943;-86
2023/05/31 05:22:41;;;;;;;;;;;12.90;99.90;;;;;;5056642;28;19905;-86
2023/05/31 05:25:07;;;;;;;;;;;13.00;99.90;;;;;;5073918;28;19912;-85
2023/05/31 05:27:33;;;;;;;;;;;13.10;99.90;;;;;;5073710;28;19958;-87
2023/05/31 05:29:58;;;;;;;;;;;13.20;99.90;;;;;;5073714;28;19919;-87
2023/05/31 05:32:24;;;;;;;;;;;13.30;99.90;;;;;;5073918;28;19915;-86
2023/05/31 05:34:50;;;;;;;;;;;13.30;99.90;;;;;;5073639;28;20003;-87
2023/05/31 05:37:15;;;;;;;;;;;13.40;99.90;;;;;;5073877;28;19912;-86
2023/05/31 05:39:41;;;;;;;;;;;13.50;99.90;;;;;;5073456;28;19908;-86
2023/05/31 05:42:07;;;;;;;;;;;13.60;99.90;;;;;;5072960;28;19959;-86
2023/05/31 05:44:33;;;;;;;;;;;13.60;99.90;;;;;;5074127;28;20287;-87
2023/05/31 05:46:59;;;;;;;;;;;13.70;99.70;;;;;;5073736;28;19913;-87
2023/05/31 05:49:25;;;;;;;;;;;13.80;99.80;;;;;;5073632;28;19912;-87
2023/05/31 05:51:51;;;;;;;;;;;13.80;99.70;;;;;;5073375;28;19908;-87
2023/05/31 05:54:17;;;;;;;;;;;13.90;99.90;;;;;;5073735;28;19915;-88
2023/05/31 05:56:43;;;;;;;;;;;13.90;99.90;;;;;;5073216;28;19983;-87
2023/05/31 05:59:09;;;;;;;;;;;14.00;98.90;;;;;;5073640;28;20010;-88
2023/05/31 06:01:35;;;;;;;;;;;14.10;99.20;;;;;;5074889;28;19908;-88
2023/05/31 06:04:01;;;;;;;;;;;14.10;99.70;;;;;;5057743;28;19908;-86
2023/05/31 06:06:27;;;;;;;;;;;14.20;98.80;;;;;;5073384;28;20497;-88
2023/05/31 06:08:53;;;;;;;;;;;14.30;98.20;;;;;;5073839;28;19912;-89
2023/05/31 06:11:19;;;;;;;;;;;14.40;98.70;;;;;;5073662;28;20274;-88
2023/05/31 06:13:45;;;;;;;;;;;14.40;98.60;;;;;;5086577;28;19946;-87
2023/05/31 06:16:13;;;;;;;;;;;14.50;98.30;;;;;;5075213;28;19916;-88
2023/05/31 06:18:39;;;;;;;;;;;14.60;98.20;;;;;;5073743;28;20305;-87
2023/05/31 06:21:05;;;;;;;;;;;14.60;98.00;;;;;;5056482;28;20691;-87
2023/05/31 06:23:31;;;;;;;;;;;14.70;97.90;;;;;;5073355;28;19912;-88
2023/05/31 06:25:56;;;;;;;;;;;14.80;97.50;;;;;;5073026;28;20006;-87
2023/05/31 06:28:22;;;;;;;;;;;14.80;97.50;;;;;;5073252;28;19996;-87
2023/05/31 06:30:51;;;;;;;;;;;14.90;97.50;;;;;;5073197;28;19909;-87
2023/05/31 06:33:17;;;;;;;;;;;15.00;97.10;;;;;;5073047;28;19908;-87
2023/05/31 06:35:44;;;;;;;;;;;15.10;97.30;;;;;;5075124;28;20094;-88
2023/05/31 06:38:15;;;;;;;;;;;15.20;96.50;;;;;;5077137;28;20014;-87
2023/05/31 06:40:42;;;;;;;;;;;15.30;96.40;;;;;;5076723;28;19916;-88
2023/05/31 06:43:08;;;;;;;;;;;15.30;94.90;;;;;;5076768;28;19904;-87
2023/05/31 06:45:53;;;;;;;;;;;15.40;95.40;;;;;;5069482;28;19924;-87
2023/05/31 06:48:45;;;;;;;;;;;15.40;94.70;;;;;;5059842;28;19908;-87
2023/05/31 06:55:17;;;;;;;;;;;15.70;95.90;;;;;;5077924;28;19962;-87
2023/05/31 06:57:43;;;;;;;;;;;15.80;94.80;;;;;;5076069;28;19908;-87
2023/05/31 07:00:10;;;;;;;;;;;15.80;94.60;;;;;;5076233;28;19953;-88
2023/05/31 07:02:36;;;;;;;;;;;15.90;95.20;;;;;;5076923;28;19915;-87
2023/05/31 07:05:02;;;;;;;;;;;16.00;94.30;;;;;;5076587;28;20354;-88
2023/05/31 07:07:27;;;;;;;;;;;16.10;94.30;;;;;;5076983;28;19915;-88
2023/05/31 07:09:53;;;;;;;;;;;16.10;94.70;;;;;;5076839;28;19943;-88
2023/05/31 07:12:19;;;;;;;;;;;16.10;94.00;;;;;;5059722;28;19915;-87
2023/05/31 07:14:45;;;;;;;;;;;16.20;94.10;;;;;;5075787;28;19908;-86
2023/05/31 07:17:10;;;;;;;;;;;16.30;93.70;;;;;;5075216;28;19909;-87
2023/05/31 07:19:44;;;;;;;;;;;16.40;93.80;;;;;;5075259;28;19932;-87
2023/05/31 07:22:09;;;;;;;;;;;16.50;93.30;;;;;;5075454;28;20318;-87
2023/05/31 07:24:35;;;;;;;;;;;17.00;92.30;;;;;;5075623;28;19916;-87
2023/05/31 07:27:00;;;;;;;;;;;18.00;90.90;;;;;;5075979;28;20419;-87
2023/05/31 07:29:26;;;;;;;;;;;19.10;86.70;;;;;;5076449;28;19911;-86
2023/05/31 07:31:52;;;;;;;;;;;19.60;83.50;;;;;;5076413;28;19912;-87
2023/05/31 07:34:17;;;;;;;;;;;19.50;82.40;;;;;;5075350;28;19909;-87
2023/05/31 07:36:43;;;;;;;;;;;18.70;85.40;;;;;;5075263;28;19912;-87
2023/05/31 07:39:10;;;;;;;;;;;18.10;87.80;;;;;;5075247;28;20002;-87
2023/05/31 07:41:36;;;;;;;;;;;17.70;88.20;;;;;;5075083;28;19908;-88
2023/05/31 07:44:02;;;;;;;;;;;17.60;89.50;;;;;;5074648;28;20287;-87
2023/05/31 07:46:28;;;;;;;;;;;17.50;87.20;;;;;;5075068;28;19912;-87
2023/05/31 07:48:54;;;;;;;;;;;17.40;88.60;;;;;;5075209;28;19908;-87
2023/05/31 07:51:19;;;;;;;;;;;17.60;90.00;;;;;;5076158;28;20003;-87
2023/05/31 07:53:46;;;;;;;;;;;18.30;89.40;;;;;;5075780;28;19916;-87
2023/05/31 07:56:12;;;;;;;;;;;20.00;83.10;;;;;;5058617;28;19915;-87
2023/05/31 07:58:38;;;;;;;;;;;21.50;79.00;;;;;;5076539;28;20272;-87
2023/05/31 08:01:03;;;;;;;;;;;22.60;76.00;;;;;;5074109;28;19916;-87
2023/05/31 08:03:30;;;;;;;;;;;23.40;74.90;;;;;;5074094;28;19991;-87
2023/05/31 08:05:56;;;;;;;;;;;24.20;71.10;;;;;;5074873;28;19912;-86
2023/05/31 08:08:22;;;;;;;;;;;25.00;67.50;;;;;;5074298;28;19910;-87
2023/05/31 08:10:48;;;;;;;;;;;25.20;61.30;;;;;;5074485;28;19973;-88
2023/05/31 08:13:13;;;;;;;;;;;25.10;62.50;;;;;;5074595;28;20423;-87
2023/05/31 08:15:39;;;;;;;;;;;25.80;60.30;;;;;;5074322;28;19909;-87
2023/05/31 08:18:05;;;;;;;;;;;26.00;59.60;;;;;;5074397;28;20375;-86
2023/05/31 08:20:30;;;;;;;;;;;26.40;60.00;;;;;;5074242;28;19966;-87
2023/05/31 08:22:56;;;;;;;;;;;26.70;57.30;;;;;;5074132;28;20418;-87
2023/05/31 08:25:22;;;;;;;;;;;25.60;56.60;;;;;;5074309;28;19982;-87
2023/05/31 08:27:47;;;;;;;;;;;24.80;58.10;;;;;;5074110;28;20367;-87
2023/05/31 08:30:13;;;;;;;;;;;25.30;59.00;;;;;;5074504;28;20377;-87
2023/05/31 08:32:42;;;;;;;;;;;26.10;58.30;;;;;;5073525;28;19915;-88
2023/05/31 08:35:08;;;;;;;;;;;26.70;57.30;;;;;;5074009;28;20279;-87
2023/05/31 08:37:35;;;;;;;;;;;27.00;56.10;;;;;;5074286;28;20347;-87
2023/05/31 08:40:01;;;;;;;;;;;26.90;55.60;;;;;;5073444;28;19914;-87
2023/05/31 08:42:40;;;;;;;;;;;25.70;54.60;;;;;;5074465;28;19904;-88
2023/05/31 08:45:08;;;;;;;;;;;25.30;57.50;;;;;;5107769;28;20027;-87
2023/05/31 08:47:39;;;;;;;;;;;26.20;58.10;;;;;;5073556;28;19909;-87
2023/05/31 08:50:05;;;;;;;;;;;26.40;54.80;;;;;;5073819;28;19909;-88
2023/05/31 08:52:31;;;;;;;;;;;26.10;55.00;;;;;;5072906;28;20033;-88
2023/05/31 08:54:57;;;;;;;;;;;25.60;54.80;;;;;;5073187;28;20332;-88
2023/05/31 08:57:23;;;;;;;;;;;25.70;57.00;;;;;;5072882;28;19998;-88
2023/05/31 08:59:49;;;;;;;;;;;26.20;56.60;;;;;;5073442;28;19909;-87
2023/05/31 09:02:15;;;;;;;;;;;26.50;54.10;;;;;;5075553;28;19909;-88
2023/05/31 09:04:41;;;;;;;;;;;26.50;55.10;;;;;;5074100;28;19950;-87
2023/05/31 09:07:07;;;;;;;;;;;26.20;55.70;;;;;;5073785;28;20019;-87
2023/05/31 09:09:33;;;;;;;;;;;25.50;55.60;;;;;;5056603;28;19912;-86
2023/05/31 09:12:00;;;;;;;;;;;25.50;57.80;;;;;;5073802;28;19999;-88
2023/05/31 09:14:26;;;;;;;;;;;25.90;58.60;;;;;;5073617;28;19909;-87
2023/05/31 09:16:51;;;;;;;;;;;26.10;55.70;;;;;;5073017;28;19918;-88
2023/05/31 09:19:17;;;;;;;;;;;26.60;55.90;;;;;;5056805;28;20314;-88
2023/05/31 09:21:43;;;;;;;;;;;26.10;55.20;;;;;;5074575;28;19962;-88
2023/05/31 09:24:12;;;;;;;;;;;26.10;56.60;;;;;;5068364;28;19939;-87
2023/05/31 09:26:45;;;;;;;;;;;26.60;54.40;;;;;;5056670;28;19913;-87
2023/05/31 09:29:11;;;;;;;;;;;26.40;56.20;;;;;;5073032;28;19995;-89
2023/05/31 09:31:37;;;;;;;;;;;26.30;55.60;;;;;;5073245;28;19993;-87
2023/05/31 09:34:02;;;;;;;;;;;25.90;54.70;;;;;;5072819;28;19919;-87
2023/05/31 09:36:29;;;;;;;;;;;25.20;54.90;;;;;;5089832;28;20009;-88
2023/05/31 09:38:59;;;;;;;;;;;25.60;56.00;;;;;;5073439;28;19908;-88
2023/05/31 09:41:25;;;;;;;;;;;25.70;54.60;;;;;;5073061;28;19908;-87
2023/05/31 09:43:51;;;;;;;;;;;25.80;54.10;;;;;;5074004;28;19932;-87
2023/05/31 09:46:17;;;;;;;;;;;25.80;54.60;;;;;;5073007;28;19912;-87
2023/05/31 09:48:43;;;;;;;;;;;26.00;55.00;;;;;;5073294;28;19919;-88
2023/05/31 09:51:10;;;;;;;;;;;26.30;54.20;;;;;;5073160;28;20311;-85
2023/05/31 09:53:37;;;;;;;;;;;25.80;54.00;;;;;;5056204;28;20279;-86
2023/05/31 09:56:07;;;;;;;;;;;25.80;56.00;;;;;;5074344;28;19955;-88
2023/05/31 09:58:33;;;;;;;;;;;26.70;55.50;;;;;;5072983;28;20360;-86
2023/05/31 10:00:59;;;;;;;;;;;26.20;56.00;;;;;;5056474;28;19935;-87
2023/05/31 10:03:27;;;;;;;;;;;26.30;56.40;;;;;;5073150;28;19909;-87
2023/05/31 10:05:52;;;;;;;;;;;26.20;54.20;;;;;;5073182;28;20391;-87
2023/05/31 10:08:18;;;;;;;;;;;25.30;54.70;;;;;;5072877;28;19909;-86
2023/05/31 10:10:43;;;;;;;;;;;24.80;55.80;;;;;;5075149;28;19909;-87
2023/05/31 10:13:12;;;;;;;;;;;24.70;57.40;;;;;;5060096;28;19980;-87
2023/05/31 10:15:39;;;;;;;;;;;24.60;57.20;;;;;;5076333;28;19908;-86
2023/05/31 10:18:10;;;;;;;;;;;24.60;58.40;;;;;;5075974;28;19908;-88
2023/05/31 10:20:35;;;;;;;;;;;24.90;58.00;;;;;;5076333;28;20412;-86
2023/05/31 10:23:02;;;;;;;;;;;24.50;59.20;;;;;;5059760;28;19908;-87
2023/05/31 10:25:29;;;;;;;;;;;24.10;58.10;;;;;;5076375;28;19916;-88
2023/05/31 10:27:57;;;;;;;;;;;24.10;57.30;;;;;;5058848;28;20248;-87
2023/05/31 10:30:26;;;;;;;;;;;23.80;56.80;;;;;;5076347;28;19916;-88
2023/05/31 10:33:21;;;;;;;;;;;24.10;59.20;;;;;;5076456;28;19909;-87
2023/05/31 10:35:46;;;;;;;;;;;24.50;57.90;;;;;;5040890;28;20302;-88
2023/05/31 10:38:13;;;;;;;;;;;24.70;58.20;;;;;;5075712;28;19908;-88
2023/05/31 10:40:52;;;;;;;;;;;25.20;57.70;;;;;;5059438;28;19909;-88
2023/05/31 10:43:24;;;;;;;;;;;25.00;56.90;;;;;;5059260;28;19912;-87
2023/05/31 10:45:51;;;;;;;;;;;24.60;56.40;;;;;;5076030;28;19913;-86
2023/05/31 10:48:17;;;;;;;;;;;24.70;56.90;;;;;;5077800;28;19909;-87
2023/05/31 10:50:52;;;;;;;;;;;24.60;56.60;;;;;;5077802;28;20378;-87
2023/05/31 10:53:17;;;;;;;;;;;24.40;56.70;;;;;;5076657;28;19916;-87
2023/05/31 10:55:46;;;;;;;;;;;24.50;57.20;;;;;;5075648;28;19999;-87
2023/05/31 10:58:28;;;;;;;;;;;25.00;56.00;;;;;;5075990;28;19909;-88
2023/05/31 11:01:03;;;;;;;;;;;25.30;55.50;;;;;;5087168;28;20053;-87
2023/05/31 11:03:31;;;;;;;;;;;25.00;55.70;;;;;;5055100;28;19909;-87
2023/05/31 11:05:59;;;;;;;;;;;24.90;55.70;;;;;;5058551;28;19908;-87
2023/05/31 11:08:25;;;;;;;;;;;25.00;57.20;;;;;;5075561;28;19908;-88
2023/05/31 11:10:51;;;;;;;;;;;24.80;54.90;;;;;;5059008;28;19908;-88
2023/05/31 11:13:17;;;;;;;;;;;24.80;54.80;;;;;;5075790;28;20378;-88
2023/05/31 11:15:43;;;;;;;;;;;25.10;56.10;;;;;;5075826;28;19908;-88
2023/05/31 11:18:09;;;;;;;;;;;25.40;55.80;;;;;;5075461;28;19976;-87
2023/05/31 11:20:36;;;;;;;;;;;25.30;53.70;;;;;;5074716;28;19939;-86
2023/05/31 11:23:17;;;;;;;;;;;25.20;53.60;;;;;;5058560;28;19915;-87
2023/05/31 11:25:42;;;;;;;;;;;25.00;52.80;;;;;;5058173;28;19912;-88
2023/05/31 11:28:08;;;;;;;;;;;24.90;54.00;;;;;;5075511;28;19916;-87
2023/05/31 11:30:37;;;;;;;;;;;25.10;52.90;;;;;;5075563;28;20368;-86
2023/05/31 11:33:13;;;;;;;;;;;24.80;54.10;;;;;;5072786;28;19959;-87
2023/05/31 11:35:39;;;;;;;;;;;24.60;54.60;;;;;;5078380;28;20316;-86
2023/05/31 11:38:05;;;;;;;;;;;24.60;54.00;;;;;;5075133;28;19915;-87
2023/05/31 11:40:31;;;;;;;;;;;24.80;53.60;;;;;;5074476;28;20352;-87
2023/05/31 11:43:04;;;;;;;;;;;24.50;54.20;;;;;;5074672;28;20437;-88
2023/05/31 11:45:30;;;;;;;;;;;24.40;53.90;;;;;;5074815;28;19913;-86
2023/05/31 11:48:14;;;;;;;;;;;24.00;55.20;;;;;;5076741;28;19908;-86
2023/05/31 11:50:43;;;;;;;;;;;24.30;55.30;;;;;;5072479;28;19919;-87
2023/05/31 11:53:10;;;;;;;;;;;24.40;56.10;;;;;;5075827;28;19905;-87
2023/05/31 11:55:36;;;;;;;;;;;24.20;54.20;;;;;;5076870;28;19915;-86
2023/05/31 11:58:04;;;;;;;;;;;24.30;54.00;;;;;;5074673;28;20334;-86
2023/05/31 12:00:31;;;;;;;;;;;24.40;53.80;;;;;;5076117;28;20306;-87
2023/05/31 12:02:57;;;;;;;;;;;24.50;52.40;;;;;;5073997;28;19908;-87
2023/05/31 12:05:23;;;;;;;;;;;24.20;53.90;;;;;;5074592;28;19920;-86
2023/05/31 12:07:52;;;;;;;;;;;24.10;54.20;;;;;;5074355;28;19915;-86
2023/05/31 12:10:18;;;;;;;;;;;24.20;55.80;;;;;;5074473;28;19908;-87
2023/05/31 12:12:45;;;;;;;;;;;24.00;56.50;;;;;;5074477;28;19909;-86
2023/05/31 12:15:12;;;;;;;;;;;24.30;55.20;;;;;;5074576;28;19961;-87
2023/05/31 12:17:38;;;;;;;;;;;24.70;54.90;;;;;;5074148;28;19908;-86
2023/05/31 12:20:05;;;;;;;;;;;25.00;54.60;;;;;;5074166;28;19916;-87
2023/05/31 12:22:30;;;;;;;;;;;25.00;53.10;;;;;;5074088;28;19914;-86
2023/05/31 12:24:56;;;;;;;;;;;24.90;52.30;;;;;;5073897;28;20575;-87
2023/05/31 12:27:23;;;;;;;;;;;25.00;53.20;;;;;;5074012;28;19904;-87
2023/05/31 12:29:55;;;;;;;;;;;25.00;52.00;;;;;;5074299;28;19921;-87
2023/05/31 12:32:21;;;;;;;;;;;25.60;54.00;;;;;;5073421;28;19908;-86
2023/05/31 12:34:47;;;;;;;;;;;25.60;51.20;;;;;;5057656;28;19916;-86
2023/05/31 12:37:13;;;;;;;;;;;26.40;52.10;;;;;;5057946;28;19908;-87
2023/05/31 12:39:39;;;;;;;5.45;2.40;;;27.10;51.80;;;;;;5073644;28;19996;-87
2023/05/31 12:42:06;;;;;;;6.30;2.50;;;26.80;51.20;;;;;;5056671;28;20051;-87
2023/05/31 12:44:33;;;;;;;8.60;2.33;;;27.30;50.60;;;;;;5056560;28;20031;-87
2023/05/31 12:47:08;;;;;;;7.70;2.25;;;27.70;49.20;;;;;;5050146;28;20022;-87
2023/05/31 12:49:35;;;;;;;9.68;2.38;;;27.70;49.50;;;;;;5073943;28;20043;-87
2023/05/31 12:52:02;;;;;;;9.70;2.35;;;28.00;49.90;;;;;;5057069;28;20055;-88
2023/05/31 12:54:30;;;;;;;6.55;2.13;;;27.60;50.30;;;;;;5073989;28;20017;-87
2023/05/31 12:56:57;;;;;;;6.00;2.67;;;27.30;48.70;;;;;;5056639;28;20031;-86
2023/05/31 12:59:24;;;;;;;8.73;2.70;;;27.30;47.90;;;;;;5057910;28;20495;-86
2023/05/31 13:01:51;;;;;;;6.85;2.45;;;27.30;48.80;;;;;;5057507;28;20033;-87
2023/05/31 13:04:17;;;;;;;10.90;3.03;;;27.20;49.40;;;;;;5073679;28;20511;-87
2023/05/31 13:06:43;;;;;;;5.63;2.35;;;27.20;50.50;;;;;;5056818;28;20067;-86
2023/05/31 13:09:09;;;;;;;4.50;2.17;;;27.40;49.30;;;;;;5066297;28;20024;-87
2023/05/31 13:11:36;;;;;;;12.57;3.33;;;27.10;47.20;;;;;;5057940;28;20109;-89
2023/05/31 13:14:08;;;;;;;8.57;2.08;;;26.90;47.20;;;;;;5061198;28;20044;-87
2023/05/31 13:16:35;;;;;;;6.35;2.60;;;27.00;48.90;;;;;;5065110;28;20031;-88
2023/05/31 13:19:02;;;;;;;5.80;2.13;;;27.20;47.30;;;;;;5072856;28;20086;-87
2023/05/31 13:21:28;;;;;;;11.63;2.00;;;27.30;47.90;;;;;;5055860;28;20464;-88
2023/05/31 13:23:58;;;;;;;5.28;2.70;;;27.80;48.80;;;;;;5056009;28;20078;-87
2023/05/31 13:26:29;;;;;;;6.05;2.28;;;28.70;48.60;;;;;;5071173;28;20060;-88
2023/05/31 13:29:00;;;;;;;6.47;3.03;;;28.30;48.90;;;;;;5077947;28;20025;-88
2023/05/31 13:31:26;;;;;;;8.25;3.55;;;28.30;48.50;;;;;;5065780;28;20025;-88
2023/05/31 13:33:52;;;;;;;8.80;2.20;;;27.70;46.20;;;;;;5044525;28;20115;-88
2023/05/31 13:36:22;;;;;;;9.77;2.50;;;27.60;46.80;;;;;;5050533;28;20021;-86
2023/05/31 13:38:49;;;;;;;8.40;2.50;;;27.50;47.80;;;;;;5056541;28;20032;-88
2023/05/31 13:41:15;;;;;;;5.90;2.10;;;27.70;47.40;;;;;;5072790;28;20025;-88
2023/05/31 13:43:41;;;;;;;9.95;2.85;;;27.40;48.20;;;;;;5056683;28;20484;-88
2023/05/31 13:46:09;;;;;;;8.30;2.17;;;27.80;47.60;;;;;;5077062;28;20082;-89
2023/05/31 13:48:44;;;;;;;13.40;2.63;;;28.00;48.80;;;;;;5060137;28;20051;-88
2023/05/31 13:51:11;;;;;;;5.00;2.42;;;28.10;49.50;;;;;;5060187;28;20079;-88
2023/05/31 13:53:38;;;;;;;11.10;2.30;;;27.30;49.00;;;;;;5060256;28;20542;-88
2023/05/31 13:56:08;;;;;;;14.07;3.10;;;27.70;51.10;;;;;;5061035;28;20063;-87
2023/05/31 13:58:36;;;;;;;10.02;2.70;;;27.70;48.70;;;;;;5070724;28;20029;-88
2023/05/31 14:01:03;;;;;;;7.82;2.22;;;27.60;47.50;;;;;;5079586;28;20032;-88
2023/05/31 14:03:29;;;;;;;7.30;2.78;;;28.10;47.30;;;;;;5060822;28;20028;-88
2023/05/31 14:05:54;;;;;;;3.13;1.80;;;28.60;45.90;;;;;;5060765;28;20044;-88
2023/05/31 14:08:22;;;;;;;14.88;3.00;;;28.20;46.30;;;;;;5060727;28;20054;-87
2023/05/31 14:14:35;;;;;;;5.20;2.55;;;28.00;47.40;;;;;;5074871;28;20055;-87
2023/05/31 14:17:01;;;;;;;9.18;2.30;;;27.20;48.40;;;;;;5060156;28;20032;-87